Terminal Aerodrome Forecast
Issued by NWS Cleveland, OH

Home | Current Version | Previous Version | Graphics & Text | Print | Product List | Glossary On
Versions: 1 2 3 4 5 6 7 8 9 10 11 12
000
FTUS41 KCLE 252325
TAFMFD
TAF
KMFD 252325Z 2600/2624 22010KT P6SM BKN070
     FM260600 VRB02KT P6SM SCT070
     FM261500 VRB03KT P6SM BKN100
     FM261800 35005KT P6SM SKC=

USA.gov is the U.S. government's official web portal to all federal, state and local government web resources and services.